Aviation Digital Data Service (ADDS)

Output produced by METARs form (1533 UTC 27 April 2015)
found at http://aviationweather.gov/adds/metars/
 
KGNV 271420Z 2714/2812 26008KT P6SM SCT010 OVC080 
     FM271700 27007KT P6SM VCSH SCT010 BKN040 OVC080 
     FM280000 24005KT P6SM VCSH BKN030 OVC150 
     PROB30 2800/2804 5SM -SHRA BR